Time;durP1;ratioP1;P1;durP2;ratioP2;P2;SDS_P1;SDS_P2;PMS_P1;PMS_P2;Temp;Humidity;BMP_temperature;BMP_pressure;BME280_temperature;BME280_humidity;BME280_pressure;Samples;Min_cycle;Max_cycle;Signal;HPM_P1;HPM_P2
2022/07/20 00:00:54;;;;;;;2.60;2.30;;;23.90;45.40;;;;;;5061695;28;20461;-62
2022/07/20 00:03:20;;;;;;;2.93;2.83;;;23.90;45.40;;;;;;5064925;28;20692;-66
2022/07/20 00:05:47;;;;;;;2.50;2.40;;;23.90;45.40;;;;;;5069191;28;21536;-60
2022/07/20 00:08:13;;;;;;;2.60;2.50;;;23.90;45.40;;;;;;5068636;28;20178;-61
2022/07/20 00:13:24;;;;;;;2.63;2.43;;;23.90;45.40;;;;;;5061365;28;20378;-70
2022/07/20 00:15:50;;;;;;;2.90;2.70;;;23.90;45.40;;;;;;5063043;28;20509;-64
2022/07/20 00:18:16;;;;;;;2.47;2.37;;;23.90;45.40;;;;;;5067311;28;21777;-59
2022/07/20 00:20:42;;;;;;;2.57;2.47;;;23.90;45.40;;;;;;5070892;28;20212;-60
2022/07/20 00:23:08;;;;;;;2.77;2.67;;;24.00;45.60;;;;;;5062044;28;20173;-60
2022/07/20 00:25:33;;;;;;;2.57;2.47;;;23.90;45.50;;;;;;5061377;28;22259;-64
2022/07/20 00:27:59;;;;;;;2.70;2.60;;;23.90;45.60;;;;;;5065699;28;21348;-59
2022/07/20 00:30:26;;;;;;;2.77;2.67;;;24.00;45.60;;;;;;5066613;28;20292;-58
2022/07/20 00:32:54;;;;;;;2.73;2.63;;;23.90;45.50;;;;;;5070004;28;20510;-60
2022/07/20 00:35:20;;;;;;;2.80;2.70;;;23.90;45.50;;;;;;5069671;28;20519;-60
2022/07/20 00:37:46;;;;;;;2.80;2.70;;;23.90;45.50;;;;;;5069805;28;20764;-59
2022/07/20 00:40:13;;;;;;;2.50;2.40;;;24.00;45.60;;;;;;5071157;28;20189;-58
2022/07/20 00:42:40;;;;;;;2.43;2.33;;;23.90;45.90;;;;;;5068806;28;20462;-60
2022/07/20 00:45:07;;;;;;;2.40;2.10;;;23.90;45.50;;;;;;5061765;28;20418;-58
2022/07/20 00:47:33;;;;;;;3.00;2.80;;;24.00;45.60;;;;;;5061173;28;20429;-68
2022/07/20 00:49:59;;;;;;;2.30;2.20;;;24.00;45.60;;;;;;5061278;28;20699;-68
2022/07/20 00:52:25;;;;;;;2.70;2.50;;;23.90;45.50;;;;;;5073600;28;20231;-61
2022/07/20 00:54:53;;;;;;;2.70;2.60;;;23.90;45.50;;;;;;5065519;28;20231;-72
2022/07/20 00:57:19;;;;;;;2.50;2.40;;;23.90;45.50;;;;;;5063046;28;20571;-70
2022/07/20 00:59:45;;;;;;;2.50;2.40;;;23.90;45.50;;;;;;5065792;28;20977;-68
2022/07/20 01:02:13;;;;;;;2.30;2.20;;;23.90;45.50;;;;;;5064207;28;20468;-63
2022/07/20 01:04:40;;;;;;;2.73;2.63;;;24.00;45.60;;;;;;5065197;28;20444;-58
2022/07/20 01:07:06;;;;;;;2.57;2.47;;;24.00;45.60;;;;;;5073055;28;20418;-59
2022/07/20 01:09:34;;;;;;;2.40;2.30;;;24.00;45.70;;;;;;5061264;28;20468;-59
2022/07/20 01:12:00;;;;;;;2.13;2.03;;;23.90;45.60;;;;;;5064689;28;20467;-60
2022/07/20 01:14:26;;;;;;;2.60;2.50;;;24.00;45.70;;;;;;5060002;28;20457;-64
2022/07/20 01:16:51;;;;;;;2.47;2.37;;;23.90;45.60;;;;;;5063653;28;20509;-58
2022/07/20 01:19:17;;;;;;;2.40;2.30;;;23.90;45.60;;;;;;5063402;28;20234;-66
2022/07/20 01:21:44;;;;;;;2.27;2.17;;;24.00;45.70;;;;;;5061940;28;20228;-60
2022/07/20 01:24:11;;;;;;;2.60;2.50;;;24.00;45.70;;;;;;5068292;28;20277;-70
2022/07/20 01:26:39;;;;;;;2.43;2.33;;;24.00;45.80;;;;;;5060975;28;20449;-63
2022/07/20 01:29:05;;;;;;;2.30;2.20;;;23.90;45.60;;;;;;5063498;28;20471;-72
2022/07/20 01:31:31;;;;;;;2.87;2.67;;;24.00;45.80;;;;;;5062990;28;21088;-60
2022/07/20 01:33:57;;;;;;;2.63;2.53;;;24.00;45.70;;;;;;5065626;28;20650;-59
2022/07/20 01:36:22;;;;;;;2.50;2.40;;;24.00;45.70;;;;;;5059892;28;20697;-66
2022/07/20 01:38:48;;;;;;;2.37;2.27;;;23.90;46.50;;;;;;5069649;28;20220;-72
2022/07/20 01:41:14;;;;;;;2.63;2.43;;;24.00;45.80;;;;;;5062456;28;22646;-72
2022/07/20 01:43:39;;;;;;;2.33;2.23;;;23.90;45.70;;;;;;5062010;28;20256;-67
2022/07/20 01:46:05;;;;;;;2.30;2.20;;;23.90;45.70;;;;;;5061483;28;20727;-59
2022/07/20 01:48:31;;;;;;;2.50;2.30;;;24.00;45.80;;;;;;5061129;28;20537;-64
2022/07/20 01:50:57;;;;;;;2.20;2.10;;;24.00;45.80;;;;;;5067377;28;20185;-74
2022/07/20 01:53:23;;;;;;;2.30;2.10;;;24.00;45.80;;;;;;5068646;28;20438;-68
2022/07/20 01:55:48;;;;;;;2.10;2.00;;;24.00;45.90;;;;;;5061104;28;20302;-63
2022/07/20 01:58:14;;;;;;;2.53;2.43;;;24.00;45.90;;;;;;5060660;28;20502;-68
2022/07/20 02:00:39;;;;;;;2.40;2.30;;;23.90;45.80;;;;;;5060659;28;20580;-67
2022/07/20 02:03:05;;;;;;;2.30;2.20;;;24.00;45.90;;;;;;5063436;28;20208;-69
2022/07/20 02:05:31;;;;;;;2.17;2.07;;;24.00;46.60;;;;;;5064473;28;20246;-62
2022/07/20 02:07:56;;;;;;;2.70;2.40;;;24.00;45.90;;;;;;5060745;28;20234;-61
2022/07/20 02:10:22;;;;;;;2.33;2.23;;;24.00;45.90;;;;;;5066773;28;20185;-72
2022/07/20 02:12:47;;;;;;;2.80;2.70;;;24.00;45.90;;;;;;5066978;28;20274;-62
2022/07/20 02:17:58;;;;;;;2.60;2.50;;;24.00;45.90;;;;;;5061707;28;20351;-61
2022/07/20 02:20:23;;;;;;;2.93;2.83;;;24.00;45.90;;;;;;5062431;28;20815;-65
2022/07/20 02:22:49;;;;;;;3.23;3.03;;;24.00;45.90;;;;;;5060963;28;20224;-72
2022/07/20 02:25:14;;;;;;;2.90;2.73;;;24.00;45.90;;;;;;5069398;28;20193;-64
2022/07/20 02:27:40;;;;;;;3.07;2.90;;;24.00;45.90;;;;;;5063108;28;20268;-62
2022/07/20 02:30:06;;;;;;;3.00;2.70;;;24.00;46.00;;;;;;5060521;28;20213;-73
2022/07/20 02:32:32;;;;;;;3.50;3.30;;;24.00;46.00;;;;;;5059979;28;20567;-75
2022/07/20 02:34:57;;;;;;;3.20;3.00;;;24.00;46.00;;;;;;5062623;28;20430;-61
2022/07/20 02:37:23;;;;;;;3.30;3.10;;;24.00;46.00;;;;;;5060253;28;20258;-73
2022/07/20 02:39:48;;;;;;;3.40;3.20;;;24.00;46.00;;;;;;5065507;28;20178;-59
2022/07/20 02:42:14;;;;;;;2.97;2.80;;;24.00;46.00;;;;;;5061981;28;21608;-57
2022/07/20 02:44:40;;;;;;;3.20;3.00;;;24.00;46.00;;;;;;5059952;28;20205;-58
2022/07/20 02:47:05;;;;;;;3.20;3.00;;;24.00;46.00;;;;;;5061079;28;20587;-71
2022/07/20 02:49:32;;;;;;;3.10;2.90;;;24.00;46.00;;;;;;5061466;28;21402;-57
2022/07/20 02:51:57;;;;;;;3.20;3.00;;;24.00;46.00;;;;;;5060153;28;20177;-64
2022/07/20 02:54:23;;;;;;;3.03;2.83;;;24.00;46.00;;;;;;5069101;28;20456;-65
2022/07/20 02:56:49;;;;;;;3.67;3.37;;;24.00;46.00;;;;;;5071179;28;20184;-72
2022/07/20 02:59:15;;;;;;;3.20;3.03;;;24.00;45.90;;;;;;5061668;28;20425;-61
2022/07/20 03:01:40;;;;;;;3.10;2.90;;;24.00;46.00;;;;;;5062669;28;20923;-60
2022/07/20 03:04:06;;;;;;;2.80;2.70;;;24.00;46.00;;;;;;5060361;28;20195;-57
2022/07/20 03:06:32;;;;;;;3.33;3.13;;;24.00;46.00;;;;;;5059468;28;20259;-57
2022/07/20 03:08:58;;;;;;;3.53;3.33;;;24.00;46.00;;;;;;5059099;28;20628;-61
2022/07/20 03:11:23;;;;;;;2.70;2.60;;;24.00;46.00;;;;;;5067417;28;20189;-64
2022/07/20 03:13:49;;;;;;;3.50;3.30;;;24.00;45.90;;;;;;5061423;28;20235;-66
2022/07/20 03:16:15;;;;;;;2.70;2.60;;;24.00;46.00;;;;;;5061585;28;20189;-63
2022/07/20 03:18:40;;;;;;;2.70;2.60;;;24.00;46.00;;;;;;5063218;28;20854;-62
2022/07/20 03:21:06;;;;;;;3.10;2.90;;;24.00;46.00;;;;;;5061682;28;20264;-60
2022/07/20 03:23:32;;;;;;;2.90;2.80;;;24.00;46.00;;;;;;5062516;28;21504;-57
2022/07/20 03:25:57;;;;;;;2.73;2.63;;;24.00;46.00;;;;;;5065616;28;20919;-58
2022/07/20 03:28:23;;;;;;;3.30;3.10;;;24.00;46.00;;;;;;5066597;28;20617;-65
2022/07/20 03:30:49;;;;;;;2.70;2.60;;;24.00;46.90;;;;;;5064284;28;20193;-72
2022/07/20 03:33:15;;;;;;;2.90;2.80;;;24.00;46.10;;;;;;5063355;28;20199;-64
2022/07/20 03:35:40;;;;;;;2.60;2.50;;;24.00;46.10;;;;;;5064600;28;20235;-60
2022/07/20 03:38:06;;;;;;;2.77;2.67;;;24.00;46.00;;;;;;5063419;28;20173;-57
2022/07/20 03:40:31;;;;;;;2.50;2.40;;;24.00;46.10;;;;;;5063901;28;20216;-72
2022/07/20 03:42:57;;;;;;;2.80;2.70;;;24.00;46.10;;;;;;5068710;28;20193;-65
2022/07/20 03:45:22;;;;;;;2.70;2.60;;;24.00;46.10;;;;;;5060580;28;20177;-63
2022/07/20 03:47:48;;;;;;;2.63;2.50;;;24.00;46.10;;;;;;5059375;28;20181;-62
2022/07/20 03:50:14;;;;;;;3.00;2.80;;;24.00;46.10;;;;;;5063792;28;20190;-66
2022/07/20 03:52:39;;;;;;;2.80;2.70;;;24.00;46.10;;;;;;5065156;28;20812;-57
2022/07/20 03:55:05;;;;;;;2.70;2.60;;;24.00;46.10;;;;;;5067270;28;20203;-72
2022/07/20 03:57:31;;;;;;;2.80;2.60;;;24.00;46.20;;;;;;5071382;28;20189;-57
2022/07/20 03:59:56;;;;;;;2.90;2.80;;;24.00;46.30;;;;;;5067293;28;20994;-59
2022/07/20 04:02:22;;;;;;;2.43;2.33;;;24.00;46.20;;;;;;5068504;28;20462;-66
2022/07/20 04:04:47;;;;;;;2.63;2.53;;;24.00;46.20;;;;;;5060368;28;20185;-61
2022/07/20 04:07:13;;;;;;;2.83;2.73;;;24.00;46.20;;;;;;5063484;28;20196;-71
2022/07/20 04:09:45;;;;;;;2.57;2.47;;;24.00;46.20;;;;;;5063428;28;20186;-67
2022/07/20 04:12:19;;;;;;;2.37;2.27;;;24.00;46.20;;;;;;5063773;28;20276;-65
2022/07/20 04:14:47;;;;;;;2.47;2.37;;;24.00;46.20;;;;;;5067164;28;20645;-69
2022/07/20 04:17:13;;;;;;;2.50;2.40;;;24.00;46.20;;;;;;5062131;28;20459;-68
2022/07/20 04:19:39;;;;;;;2.60;2.50;;;24.00;46.40;;;;;;5062571;28;20478;-67
2022/07/20 04:22:05;;;;;;;2.30;2.20;;;24.00;46.30;;;;;;5061592;28;20664;-70
2022/07/20 04:24:31;;;;;;;2.10;2.00;;;24.00;46.20;;;;;;5066377;28;20448;-69
2022/07/20 04:26:57;;;;;;;2.10;2.00;;;24.00;46.30;;;;;;5062008;28;20441;-73
2022/07/20 04:29:23;;;;;;;2.30;2.20;;;24.00;46.30;;;;;;5069972;28;20490;-62
2022/07/20 04:31:50;;;;;;;2.20;2.10;;;24.00;46.30;;;;;;5066847;28;20193;-61
2022/07/20 04:34:16;;;;;;;2.57;2.47;;;24.00;46.30;;;;;;5062457;28;20421;-72
2022/07/20 04:36:41;;;;;;;2.53;2.43;;;24.00;46.30;;;;;;5071064;28;20495;-64
2022/07/20 04:39:07;;;;;;;2.27;2.17;;;24.00;46.30;;;;;;5067423;28;20279;-62
2022/07/20 04:41:33;;;;;;;2.10;2.00;;;24.00;46.30;;;;;;5061945;28;20218;-63
2022/07/20 04:43:59;;;;;;;2.30;2.20;;;24.00;46.30;;;;;;5071056;28;20537;-62
2022/07/20 04:46:25;;;;;;;2.53;2.43;;;24.00;46.30;;;;;;5067380;28;20700;-74
2022/07/20 04:48:50;;;;;;;2.07;1.97;;;24.00;46.30;;;;;;5067373;28;20211;-65
2022/07/20 04:51:16;;;;;;;2.50;2.40;;;24.00;46.40;;;;;;5061188;28;20181;-61
2022/07/20 04:53:42;;;;;;;2.50;2.40;;;24.00;46.30;;;;;;5061883;28;20213;-68
2022/07/20 04:56:09;;;;;;;2.40;2.30;;;24.00;46.40;;;;;;5062214;28;20182;-73
2022/07/20 04:58:36;;;;;;;2.20;2.10;;;24.00;46.40;;;;;;5067545;28;20181;-65
2022/07/20 05:01:02;;;;;;;2.60;2.40;;;24.00;46.40;;;;;;5061144;28;20480;-73
2022/07/20 05:03:29;;;;;;;2.63;2.53;;;24.00;46.50;;;;;;5066637;28;20433;-75
2022/07/20 05:05:54;;;;;;;2.50;2.40;;;24.00;46.50;;;;;;5065954;28;20487;-67
2022/07/20 05:08:20;;;;;;;2.17;2.07;;;24.00;46.40;;;;;;5060372;28;20579;-75
2022/07/20 05:10:46;;;;;;;2.10;2.00;;;24.00;46.50;;;;;;5061133;28;20613;-61
2022/07/20 05:13:12;;;;;;;2.23;2.13;;;24.00;46.50;;;;;;5067730;28;20200;-69
2022/07/20 05:15:38;;;;;;;2.40;2.30;;;24.00;46.50;;;;;;5065375;28;20460;-60
2022/07/20 05:18:04;;;;;;;2.30;2.20;;;24.00;46.50;;;;;;5064609;28;20572;-65
2022/07/20 05:20:30;;;;;;;1.97;1.87;;;24.00;46.50;;;;;;5063423;28;20270;-70
2022/07/20 05:22:56;;;;;;;2.60;2.50;;;24.00;46.60;;;;;;5065776;28;20466;-59
2022/07/20 05:25:22;;;;;;;2.30;2.20;;;24.00;46.50;;;;;;5066618;28;20303;-60
2022/07/20 05:27:49;;;;;;;2.63;2.53;;;24.00;46.50;;;;;;5064441;28;21362;-63
2022/07/20 05:30:15;;;;;;;2.30;2.20;;;24.00;46.60;;;;;;5072075;28;20422;-64
2022/07/20 05:32:40;;;;;;;2.20;2.10;;;24.00;46.60;;;;;;5061176;28;20463;-72
2022/07/20 05:35:08;;;;;;;2.13;2.03;;;24.00;46.60;;;;;;5059763;28;20283;-70
2022/07/20 05:37:34;;;;;;;2.30;2.20;;;24.00;46.50;;;;;;5062150;28;20182;-65
2022/07/20 05:40:00;;;;;;;2.73;2.53;;;24.00;46.50;;;;;;5063217;28;20504;-60
2022/07/20 05:42:26;;;;;;;2.73;2.63;;;24.00;46.60;;;;;;5063674;28;20535;-61
2022/07/20 05:44:51;;;;;;;2.80;2.70;;;24.00;46.60;;;;;;5067257;28;20189;-61
2022/07/20 05:47:17;;;;;;;2.43;2.33;;;24.00;46.60;;;;;;5067741;28;20264;-60
2022/07/20 05:49:47;;;;;;;2.33;2.23;;;24.00;46.60;;;;;;5061570;28;20639;-72
2022/07/20 05:52:13;;;;;;;2.07;1.97;;;24.00;46.60;;;;;;5061206;28;20469;-57
2022/07/20 05:54:39;;;;;;;2.53;2.43;;;24.00;46.60;;;;;;5069487;28;20422;-59
2022/07/20 05:57:05;;;;;;;2.60;2.50;;;24.00;46.60;;;;;;5061058;28;20523;-72
2022/07/20 05:59:31;;;;;;;2.63;2.53;;;24.00;46.60;;;;;;5064402;28;20256;-57
2022/07/20 06:01:56;;;;;;;2.40;2.30;;;24.00;46.60;;;;;;5066904;28;20579;-65
2022/07/20 06:04:22;;;;;;;2.63;2.53;;;24.00;46.60;;;;;;5060723;28;20277;-60
2022/07/20 06:06:48;;;;;;;2.23;2.13;;;24.00;46.60;;;;;;5066424;28;20569;-69
2022/07/20 06:09:13;;;;;;;2.97;2.73;;;24.00;47.40;;;;;;5060411;28;20253;-61
2022/07/20 06:11:39;;;;;;;2.70;2.57;;;24.00;46.70;;;;;;5058662;28;20181;-61
2022/07/20 06:14:04;;;;;;;2.17;2.07;;;24.00;46.70;;;;;;5058681;28;20189;-61
2022/07/20 06:16:30;;;;;;;2.47;2.37;;;24.00;46.70;;;;;;5069456;28;20178;-73
2022/07/20 06:18:56;;;;;;;2.63;2.53;;;24.00;46.70;;;;;;5061978;28;20233;-60
2022/07/20 06:21:21;;;;;;;2.43;2.33;;;24.00;46.70;;;;;;5058771;28;20212;-61
2022/07/20 06:23:47;;;;;;;2.50;2.40;;;24.00;46.80;;;;;;5059386;28;20193;-59
2022/07/20 06:26:12;;;;;;;3.00;2.90;;;24.00;46.70;;;;;;5066480;28;20182;-58
2022/07/20 06:28:38;;;;;;;2.63;2.53;;;24.00;46.70;;;;;;5060290;28;20189;-74
2022/07/20 06:31:05;;;;;;;2.70;2.60;;;24.00;46.70;;;;;;5064799;28;20205;-58
2022/07/20 06:33:32;;;;;;;2.40;2.30;;;24.00;46.70;;;;;;5065728;28;20521;-60
2022/07/20 06:35:57;;;;;;;2.40;2.30;;;24.00;46.70;;;;;;5064461;28;20552;-61
2022/07/20 06:38:23;;;;;;;3.10;2.90;;;24.00;46.70;;;;;;5060782;28;20461;-59
2022/07/20 06:40:49;;;;;;;2.90;2.80;;;24.00;46.70;;;;;;5059462;28;20180;-59
2022/07/20 06:43:14;;;;;;;2.90;2.80;;;24.00;46.80;;;;;;5059626;28;20264;-69
2022/07/20 06:45:40;;;;;;;2.47;2.37;;;24.00;46.80;;;;;;5059561;28;20193;-57
2022/07/20 06:48:05;;;;;;;2.57;2.47;;;24.00;46.70;;;;;;5069106;28;20199;-58
2022/07/20 06:50:31;;;;;;;2.90;2.80;;;24.00;46.70;;;;;;5060127;28;20193;-58
2022/07/20 06:52:57;;;;;;;2.63;2.53;;;24.00;46.70;;;;;;5058674;28;20177;-63
2022/07/20 06:55:23;;;;;;;2.73;2.63;;;24.10;46.90;;;;;;5057739;28;20438;-69
2022/07/20 06:57:48;;;;;;;2.83;2.63;;;24.00;46.80;;;;;;5061834;28;20524;-59
2022/07/20 07:00:15;;;;;;;2.83;2.73;;;24.00;47.60;;;;;;5064226;28;20299;-58
2022/07/20 07:02:40;;;;;;;2.77;2.67;;;24.00;46.70;;;;;;5071044;28;20810;-69
2022/07/20 07:05:07;;;;;;;2.73;2.53;;;24.00;46.70;;;;;;5058609;28;20437;-72
2022/07/20 07:07:34;;;;;;;2.80;2.70;;;24.10;46.90;;;;;;5058291;28;20209;-67
2022/07/20 07:10:00;;;;;;;3.03;2.90;;;24.10;46.90;;;;;;5059317;28;20433;-58
2022/07/20 07:12:26;;;;;;;2.70;2.60;;;24.00;46.80;;;;;;5075138;28;20494;-60
2022/07/20 07:14:52;;;;;;;2.70;2.60;;;24.00;46.80;;;;;;5062455;28;20293;-74
2022/07/20 07:17:18;;;;;;;2.80;2.70;;;24.00;46.80;;;;;;5070780;28;20188;-58
2022/07/20 07:19:44;;;;;;;3.67;3.47;;;24.10;47.00;;;;;;5066995;28;20221;-64
2022/07/20 07:22:09;;;;;;;2.97;2.87;;;24.10;46.90;;;;;;5064697;28;20210;-57
2022/07/20 07:24:35;;;;;;;3.00;2.90;;;24.00;46.90;;;;;;5058534;28;20823;-58
2022/07/20 07:27:01;;;;;;;3.20;3.00;;;24.00;46.80;;;;;;5063555;28;20185;-57
2022/07/20 07:29:27;;;;;;;3.23;3.03;;;24.00;46.90;;;;;;5065983;28;20839;-72
2022/07/20 07:31:58;;;;;;;3.40;3.20;;;24.10;46.90;;;;;;5064632;28;20434;-73
2022/07/20 07:34:27;;;;;;;3.00;2.80;;;24.00;46.90;;;;;;5077045;28;20180;-67
2022/07/20 07:36:54;;;;;;;2.90;2.80;;;24.00;46.90;;;;;;5067334;28;20425;-63
2022/07/20 07:39:19;;;;;;;3.20;3.00;;;24.10;47.00;;;;;;5066974;28;20425;-69
2022/07/20 07:41:45;;;;;;;3.30;3.10;;;24.10;47.00;;;;;;5063460;28;20468;-58
2022/07/20 07:44:11;;;;;;;3.00;2.90;;;24.10;47.00;;;;;;5064596;28;20181;-61
2022/07/20 07:46:36;;;;;;;3.10;3.00;;;24.00;46.90;;;;;;5066914;28;20367;-58
2022/07/20 07:49:02;;;;;;;2.60;2.50;;;24.10;47.00;;;;;;5073350;28;20189;-58
2022/07/20 07:51:29;;;;;;;3.17;2.97;;;24.10;47.00;;;;;;5066386;28;20186;-63
2022/07/20 07:53:54;;;;;;;3.40;3.20;;;24.00;46.90;;;;;;5064090;28;20421;-61
2022/07/20 07:56:21;;;;;;;3.60;3.40;;;24.00;46.90;;;;;;5063252;28;21624;-65
2022/07/20 07:58:46;;;;;;;3.93;3.73;;;24.10;47.00;;;;;;5065856;28;20238;-60
2022/07/20 08:01:12;;;;;;;3.60;3.40;;;24.10;47.10;;;;;;5063935;28;20886;-72
2022/07/20 08:03:38;;;;;;;3.50;3.37;;;24.10;47.10;;;;;;5069550;28;20200;-63
2022/07/20 08:06:04;;;;;;;3.60;3.40;;;24.10;47.10;;;;;;5070208;28;20290;-64
2022/07/20 08:08:30;;;;;;;3.63;3.43;;;24.10;47.00;;;;;;5064778;28;20185;-58
2022/07/20 08:10:57;;;;;;;3.67;3.47;;;24.10;47.00;;;;;;5068401;28;20430;-72
2022/07/20 08:13:22;;;;;;;4.10;3.90;;;24.10;47.00;;;;;;5062909;28;20177;-62
2022/07/20 08:15:48;;;;;;;3.33;3.13;;;24.10;47.10;;;;;;5068995;28;20440;-66
2022/07/20 08:18:14;;;;;;;3.57;3.30;;;24.10;47.10;;;;;;5067568;28;20232;-60
2022/07/20 08:20:40;;;;;;;4.03;3.83;;;24.10;47.10;;;;;;5070711;28;20580;-58
2022/07/20 08:23:06;;;;;;;3.63;3.33;;;24.00;47.00;;;;;;5065558;28;20224;-61
2022/07/20 08:25:33;;;;;;;3.73;3.53;;;24.10;47.10;;;;;;5065538;28;20435;-58
2022/07/20 08:28:28;;;;;;;3.70;3.50;;;24.00;46.90;;;;;;5065181;28;20177;-60
2022/07/20 08:30:55;;;;;;;3.50;3.20;;;24.10;47.10;;;;;;5048383;28;20426;-61
2022/07/20 08:33:21;;;;;;;3.70;3.50;;;24.10;47.10;;;;;;5063174;28;20426;-62
2022/07/20 08:35:47;;;;;;;4.10;3.90;;;24.10;47.10;;;;;;5072394;28;20452;-65
2022/07/20 08:38:13;;;;;;;3.90;3.70;;;24.10;47.20;;;;;;5061902;28;20478;-62
2022/07/20 08:40:38;;;;;;;6.53;3.90;;;24.10;47.10;;;;;;5063878;28;20292;-65
2022/07/20 08:43:05;;;;;;;4.07;3.87;;;24.10;47.10;;;;;;5068199;28;20517;-62
2022/07/20 08:45:31;;;;;;;4.07;3.87;;;24.10;47.10;;;;;;5067578;28;20920;-65
2022/07/20 08:48:04;;;;;;;4.43;4.13;;;24.10;47.10;;;;;;5062363;28;20430;-59
2022/07/20 08:50:32;;;;;;;3.97;3.77;;;24.10;47.10;;;;;;5073702;28;20269;-62
2022/07/20 08:52:58;;;;;;;4.57;4.27;;;24.10;47.20;;;;;;5063453;28;20528;-59
2022/07/20 08:55:25;;;;;;;4.37;4.13;;;24.10;47.10;;;;;;5060768;28;20434;-63
2022/07/20 08:57:51;;;;;;;4.63;4.43;;;24.10;47.20;;;;;;5069474;28;21440;-58
2022/07/20 09:00:17;;;;;;;4.37;4.10;;;24.10;47.30;;;;;;5063023;28;20967;-62
2022/07/20 09:02:52;;;;;;;4.33;4.13;;;24.10;47.20;;;;;;5063169;28;20464;-63
2022/07/20 09:05:20;;;;;;;4.10;3.87;;;24.10;47.20;;;;;;5069020;28;20202;-63
2022/07/20 09:07:48;;;;;;;4.30;4.10;;;24.10;47.20;;;;;;5074404;28;20851;-67
2022/07/20 09:10:24;;;;;;;4.30;4.10;;;24.10;47.10;;;;;;5062779;28;20421;-62
2022/07/20 09:13:02;;;;;;;4.70;4.47;;;24.10;47.20;;;;;;5065583;28;20429;-68
2022/07/20 09:15:50;;;;;;;4.33;4.13;;;24.10;47.10;;;;;;5065836;28;20908;-75
2022/07/20 09:18:30;;;;;;;4.73;4.43;;;24.10;47.10;;;;;;5062179;28;20504;-74
2022/07/20 09:20:59;;;;;;;4.20;4.00;;;24.10;47.20;;;;;;5068299;28;21058;-64
2022/07/20 09:23:33;;;;;;;4.60;4.40;;;24.10;47.20;;;;;;5073040;28;20426;-73
2022/07/20 09:26:05;;;;;;;4.80;4.50;;;24.10;47.20;;;;;;5062889;28;20440;-62
2022/07/20 09:28:42;;;;;;;5.10;4.80;;;24.10;47.20;;;;;;5064417;28;20519;-61
2022/07/20 09:31:12;;;;;;;5.10;4.90;;;24.10;47.20;;;;;;5062942;28;20442;-59
2022/07/20 09:33:38;;;;;;;4.80;4.60;;;24.10;47.20;;;;;;5064962;28;20925;-62
2022/07/20 09:36:05;;;;;;;6.40;6.00;;;24.10;47.20;;;;;;5066003;28;20443;-57
2022/07/20 09:38:38;;;;;;;5.20;4.90;;;24.10;47.20;;;;;;5072943;28;20425;-57
2022/07/20 09:41:19;;;;;;;5.13;4.83;;;24.10;47.20;;;;;;5063739;28;21994;-62
2022/07/20 09:43:45;;;;;;;5.13;4.83;;;24.10;47.30;;;;;;5060800;28;20492;-63
2022/07/20 09:46:17;;;;;;;5.07;4.77;;;24.10;47.20;;;;;;5061644;28;22295;-59
2022/07/20 09:48:54;;;;;;;5.70;5.30;;;24.10;47.20;;;;;;5063345;28;20287;-68
2022/07/20 09:51:25;;;;;;;5.83;5.53;;;24.10;47.20;;;;;;5069416;28;20483;-76
2022/07/20 09:53:55;;;;;;;5.13;4.93;;;24.10;47.20;;;;;;5068777;28;20456;-65
2022/07/20 09:56:23;;;;;;;5.03;4.83;;;24.10;47.20;;;;;;5061318;28;20437;-67
2022/07/20 09:58:51;;;;;;;5.50;5.23;;;24.10;47.20;;;;;;5060429;28;20524;-61
2022/07/20 10:01:20;;;;;;;4.73;4.53;;;24.10;47.20;;;;;;5064842;28;20457;-67
2022/07/20 10:03:47;;;;;;;5.50;5.20;;;24.10;47.30;;;;;;5069580;28;20445;-70
2022/07/20 10:06:14;;;;;;;5.60;5.30;;;24.10;47.20;;;;;;5065382;28;20491;-73
2022/07/20 10:08:40;;;;;;;5.70;5.40;;;24.20;47.40;;;;;;5069049;28;20476;-73
2022/07/20 10:11:06;;;;;;;5.60;5.20;;;24.10;47.30;;;;;;5064942;28;20433;-58
2022/07/20 10:13:34;;;;;;;5.37;5.07;;;24.20;47.40;;;;;;5059436;28;20452;-73
2022/07/20 10:16:25;;;;;;;5.50;5.20;;;24.10;47.30;;;;;;5059793;28;20224;-66
2022/07/20 10:18:52;;;;;;;4.93;4.63;;;24.20;47.30;;;;;;5052897;28;20484;-64
2022/07/20 10:21:40;;;;;;;4.97;4.77;;;24.10;47.30;;;;;;5064409;28;20453;-60
2022/07/20 10:24:30;;;;;;;6.13;5.73;;;24.10;47.30;;;;;;5070628;28;20461;-57
2022/07/20 10:27:08;;;;;;;4.97;4.77;;;24.10;47.30;;;;;;5062978;28;20437;-64
2022/07/20 10:29:38;;;;;;;5.17;4.97;;;24.10;47.30;;;;;;5061057;28;20545;-67
2022/07/20 10:32:16;;;;;;;5.07;4.70;;;24.10;47.30;;;;;;5058952;28;20532;-71
2022/07/20 10:34:42;;;;;;;6.37;6.00;;;24.10;47.30;;;;;;5063120;28;20460;-57
2022/07/20 10:37:23;;;;;;;6.37;5.97;;;24.20;47.40;;;;;;5067353;28;20454;-57
2022/07/20 10:40:11;;;;;;;5.30;4.90;;;24.20;47.40;;;;;;5066833;28;20175;-64
2022/07/20 10:42:43;;;;;;;5.23;4.93;;;24.10;47.30;;;;;;5063056;28;21365;-64
2022/07/20 10:45:19;;;;;;;5.60;5.30;;;24.10;47.40;;;;;;5060764;28;20811;-60
2022/07/20 10:47:51;;;;;;;5.67;5.37;;;24.20;47.40;;;;;;5064076;28;22935;-58
2022/07/20 10:50:54;;;;;;;4.50;4.30;;;24.20;47.50;;;;;;5068631;28;20516;-68
2022/07/20 10:53:29;;;;;;;5.10;4.90;;;24.20;47.40;;;;;;5068252;28;20432;-64
2022/07/20 10:55:58;;;;;;;5.70;5.40;;;24.10;47.40;;;;;;5063541;28;20426;-61
2022/07/20 10:58:32;;;;;;;5.97;5.67;;;24.20;47.50;;;;;;5061865;28;20798;-71
2022/07/20 11:01:03;;;;;;;5.73;5.43;;;24.20;47.50;;;;;;5069309;28;20856;-66
2022/07/20 11:03:44;;;;;;;5.40;5.10;;;24.20;47.50;;;;;;5067594;28;20430;-59
2022/07/20 11:06:12;;;;;;;5.57;5.27;;;24.20;47.50;;;;;;5069919;28;20668;-61
2022/07/20 11:08:44;;;;;;;6.17;5.87;;;24.20;47.50;;;;;;5072431;28;20430;-68
2022/07/20 11:11:15;;;;;;;6.13;5.73;;;24.10;47.40;;;;;;5066754;28;20433;-58
2022/07/20 11:13:41;;;;;;;6.10;5.80;;;24.20;47.50;;;;;;5069946;28;20449;-72
2022/07/20 11:16:07;;;;;;;5.90;5.60;;;24.20;47.50;;;;;;5063822;28;20924;-71
2022/07/20 11:18:35;;;;;;;6.30;6.00;;;24.10;47.40;;;;;;5070898;28;20224;-62
2022/07/20 11:21:06;;;;;;;5.40;5.10;;;24.20;47.50;;;;;;5063423;28;20485;-67
2022/07/20 11:23:52;;;;;;;6.00;5.70;;;24.20;47.50;;;;;;5075660;28;20422;-58
2022/07/20 11:26:20;;;;;;;6.87;6.40;;;24.20;47.50;;;;;;5071793;28;20453;-63
2022/07/20 11:28:57;;;;;;;5.77;5.47;;;24.20;47.50;;;;;;5067343;28;20454;-74
2022/07/20 11:31:27;;;;;;;5.57;5.27;;;24.20;47.50;;;;;;5063952;28;20440;-68
2022/07/20 11:33:54;;;;;;;5.93;5.63;;;24.20;47.60;;;;;;5062905;28;20433;-61
2022/07/20 11:36:28;;;;;;;6.30;6.00;;;24.20;47.50;;;;;;5065013;28;20433;-75
2022/07/20 11:38:59;;;;;;;5.77;5.47;;;24.10;47.40;;;;;;5067854;28;20425;-60
2022/07/20 11:41:34;;;;;;;5.90;5.57;;;24.20;47.50;;;;;;5065688;28;20545;-69
2022/07/20 11:44:02;;;;;;;5.87;5.47;;;24.20;47.50;;;;;;5063660;28;20437;-72
2022/07/20 11:46:40;;;;;;;6.10;5.70;;;24.10;47.50;;;;;;5063486;28;20441;-61
2022/07/20 11:49:13;;;;;;;5.93;5.53;;;24.10;48.20;;;;;;5063891;28;21586;-58
2022/07/20 11:51:40;;;;;;;6.43;6.03;;;24.10;47.50;;;;;;5068083;28;20457;-62
2022/07/20 11:54:07;;;;;;;6.13;5.83;;;24.20;47.50;;;;;;5066670;28;20455;-61
2022/07/20 11:56:35;;;;;;;5.90;5.47;;;24.10;47.50;;;;;;5071528;28;20422;-65
2022/07/20 11:59:05;;;;;;;6.07;5.77;;;24.10;47.50;;;;;;5071119;28;20712;-70
2022/07/20 12:01:33;;;;;;;6.00;5.67;;;24.10;47.50;;;;;;5067359;28;20459;-59
2022/07/20 12:04:08;;;;;;;5.90;5.60;;;24.20;47.60;;;;;;5065629;28;20441;-71
2022/07/20 12:06:36;;;;;;;6.07;5.67;;;24.10;47.50;;;;;;5063113;28;20915;-63
2022/07/20 12:09:13;;;;;;;5.50;5.20;;;24.20;47.60;;;;;;5067870;28;20453;-64
2022/07/20 12:12:02;;;;;;;5.27;4.97;;;24.20;47.60;;;;;;5077931;28;20437;-62
2022/07/20 12:14:39;;;;;;;6.17;5.87;;;24.20;47.60;;;;;;5062633;28;20895;-57
2022/07/20 12:17:13;;;;;;;5.83;5.43;;;24.10;47.50;;;;;;5063515;28;20432;-69
2022/07/20 12:19:41;;;;;;;6.50;6.20;;;24.20;47.60;;;;;;5066234;28;20513;-72
2022/07/20 12:22:13;;;;;;;6.03;5.73;;;24.10;47.60;;;;;;5063888;28;20462;-66
2022/07/20 12:24:55;;;;;;;5.60;5.30;;;24.20;47.60;;;;;;5074047;28;20436;-66
2022/07/20 12:27:23;;;;;;;5.80;5.50;;;24.20;47.60;;;;;;5076469;28;20425;-71
2022/07/20 12:29:48;;;;;;;5.87;5.57;;;24.10;47.60;;;;;;5063095;28;20996;-67
2022/07/20 12:32:17;;;;;;;5.97;5.67;;;24.10;48.30;;;;;;5064717;28;20514;-57
2022/07/20 12:34:53;;;;;;;5.70;5.40;;;24.10;47.60;;;;;;5067587;28;20272;-72
2022/07/20 12:37:20;;;;;;;5.33;5.03;;;24.20;47.60;;;;;;5065267;28;20444;-62
2022/07/20 12:39:49;;;;;;;5.50;5.20;;;24.20;47.60;;;;;;5063095;28;20483;-70
2022/07/20 12:42:18;;;;;;;5.27;5.07;;;24.20;47.60;;;;;;5073763;28;20453;-64
2022/07/20 12:44:46;;;;;;;6.43;5.93;;;24.20;47.70;;;;;;5066599;28;21148;-58
2022/07/20 12:47:14;;;;;;;5.93;5.50;;;24.10;47.50;;;;;;5064613;28;20410;-66
2022/07/20 12:49:40;;;;;;;5.50;5.30;;;24.10;47.60;;;;;;5070854;28;20487;-57
2022/07/20 12:52:06;;;;;;;6.30;5.90;;;24.20;47.60;;;;;;5061915;28;20537;-65
2022/07/20 12:54:32;;;;;;;5.20;5.00;;;24.20;47.60;;;;;;5061608;28;20201;-65
2022/07/20 12:56:57;;;;;;;5.80;5.40;;;24.20;47.60;;;;;;5069626;28;20526;-68